createdAt,value
2022-09-28T00:01:21.891Z,96322.90
2022-09-28T00:03:52.220Z,96323.45
2022-09-28T00:06:24.997Z,96326.37
2022-09-28T00:08:54.052Z,96324.39
2022-09-28T00:11:24.028Z,96322.22
2022-09-28T00:13:56.626Z,96325.18
2022-09-28T00:16:28.777Z,96326.39
2022-09-28T00:18:57.086Z,96333.66
2022-09-28T00:21:31.109Z,96340.95
2022-09-28T00:24:13.096Z,96345.35
2022-09-28T00:26:45.775Z,96346.33
2022-09-28T00:29:18.658Z,96342.58
2022-09-28T00:31:47.760Z,96336.41
2022-09-28T00:34:16.450Z,96337.13
2022-09-28T00:36:46.563Z,96343.17
2022-09-28T00:39:16.014Z,96344.73
2022-09-28T00:41:45.129Z,96343.96
2022-09-28T00:44:25.419Z,96341.71
2022-09-28T00:46:54.828Z,96344.25
2022-09-28T00:49:32.655Z,96347.36
2022-09-28T00:52:03.423Z,96343.96
2022-09-28T00:54:31.942Z,96335.28
2022-09-28T00:57:01.222Z,96334.17
2022-09-28T00:59:29.524Z,96330.77
2022-09-28T01:01:57.566Z,96327.58
2022-09-28T01:04:29.744Z,96330.83
2022-09-28T01:07:00.344Z,96328.79
2022-09-28T01:09:29.797Z,96333.06
2022-09-28T01:11:57.762Z,96335.23
2022-09-28T01:14:26.248Z,96334.02
2022-09-28T01:17:32.214Z,96328.06
2022-09-28T01:20:40.934Z,96327.29
2022-09-28T01:23:35.930Z,96322.09
2022-09-28T01:26:41.999Z,96325.55
2022-09-28T01:29:24.915Z,96324.88
2022-09-28T01:32:25.142Z,96325.10
2022-09-28T01:34:59.972Z,96326.58
2022-09-28T01:37:37.570Z,96333.58
2022-09-28T01:40:09.933Z,96334.73
2022-09-28T01:42:41.240Z,96331.18
2022-09-28T01:45:22.266Z,96328.98
2022-09-28T01:47:57.298Z,96325.07
2022-09-28T01:50:29.266Z,96323.15
2022-09-28T01:53:06.336Z,96327.52
2022-09-28T01:55:39.178Z,96330.58
2022-09-28T01:58:15.103Z,96333.76
2022-09-28T02:00:48.526Z,96336.13
2022-09-28T02:03:40.210Z,96340.20
2022-09-28T02:06:16.682Z,96344.46
2022-09-28T02:08:54.045Z,96349.08
2022-09-28T02:11:23.797Z,96359.73
2022-09-28T02:14:01.552Z,96365.22
2022-09-28T02:16:43.109Z,96372.90
2022-09-28T02:19:18.136Z,96371.21
2022-09-28T02:22:03.746Z,96369.90
2022-09-28T02:24:44.390Z,96370.73
2022-09-28T02:27:42.923Z,96368.77
2022-09-28T02:30:11.612Z,96378.80
2022-09-28T02:32:44.300Z,96382.64
2022-09-28T02:35:14.709Z,96389.12
2022-09-28T02:37:43.818Z,96392.29
2022-09-28T02:40:26.671Z,96385.21
2022-09-28T02:43:23.897Z,96383.91
2022-09-28T02:46:16.807Z,96395.40
2022-09-28T02:49:10.675Z,96401.84
2022-09-28T02:51:57.028Z,96401.61
2022-09-28T02:54:49.885Z,96402.11
2022-09-28T02:57:51.742Z,96400.16
2022-09-28T03:00:24.175Z,96396.37
2022-09-28T03:02:57.925Z,96398.94
2022-09-28T03:05:38.595Z,96402.91
2022-09-28T03:08:32.677Z,96397.29
2022-09-28T03:11:25.149Z,96394.29
2022-09-28T03:13:53.904Z,96396.46
2022-09-28T03:16:24.193Z,96388.61
2022-09-28T03:18:52.529Z,96392.86
2022-09-28T03:21:20.576Z,96396.38
2022-09-28T03:23:48.954Z,96399.38
2022-09-28T03:26:18.138Z,96398.93
2022-09-28T03:28:46.328Z,96396.80
2022-09-28T03:31:18.631Z,96395.04
2022-09-28T03:33:46.671Z,96386.27
2022-09-28T03:36:15.458Z,96372.36
2022-09-28T03:38:43.431Z,96367.05
2022-09-28T03:41:11.909Z,96368.20
2022-09-28T03:43:41.925Z,96372.52
2022-09-28T03:46:10.285Z,96374.95
2022-09-28T03:48:42.476Z,96381.23
2022-09-28T03:51:12.906Z,96389.77
2022-09-28T03:53:40.886Z,96393.15
2022-09-28T03:56:14.845Z,96394.66
2022-09-28T03:58:43.156Z,96393.40
2022-09-28T04:01:17.226Z,96391.63
2022-09-28T04:03:47.089Z,96394.74
2022-09-28T04:06:15.468Z,96401.76
2022-09-28T04:08:43.707Z,96405.11
2022-09-28T04:11:12.224Z,96418.11
2022-09-28T04:13:40.398Z,96420.17
2022-09-28T04:16:11.961Z,96416.43
2022-09-28T04:18:42.787Z,96423.85
2022-09-28T04:21:13.006Z,96424.80
2022-09-28T04:23:48.925Z,96426.70
2022-09-28T04:26:22.835Z,96421.95
2022-09-28T04:29:09.484Z,96421.77
2022-09-28T04:31:51.754Z,96422.08
2022-09-28T04:34:22.630Z,96423.48
2022-09-28T04:36:51.407Z,96424.59
2022-09-28T04:39:20.203Z,96419.08
2022-09-28T04:41:51.351Z,96413.44
2022-09-28T04:44:19.721Z,96419.19
2022-09-28T04:46:48.918Z,96421.73
2022-09-28T04:49:32.152Z,96427.57
2022-09-28T04:52:07.390Z,96436.61
2022-09-28T04:54:36.183Z,96441.81
2022-09-28T04:57:06.273Z,96443.20
2022-09-28T04:59:34.475Z,96445.77
2022-09-28T05:02:02.678Z,96446.15
2022-09-28T05:04:49.459Z,96447.67
2022-09-28T05:07:36.264Z,96452.77
2022-09-28T05:10:06.896Z,96448.59
2022-09-28T05:12:35.274Z,96445.08
2022-09-28T05:15:05.095Z,96450.42
2022-09-28T05:17:33.268Z,96455.52
2022-09-28T05:20:09.219Z,96453.39
2022-09-28T05:22:37.911Z,96452.58
2022-09-28T05:25:07.314Z,96455.78
2022-09-28T05:27:46.746Z,96452.17
2022-09-28T05:30:31.003Z,96453.96
2022-09-28T05:33:21.906Z,96454.18
2022-09-28T05:36:01.078Z,96455.84
2022-09-28T05:38:31.154Z,96455.35
2022-09-28T05:41:02.080Z,96460.50
2022-09-28T05:43:33.139Z,96461.99
2022-09-28T05:46:01.286Z,96466.11
2022-09-28T05:48:30.203Z,96468.63
2022-09-28T05:51:01.447Z,96470.59
2022-09-28T05:53:29.418Z,96480.72
2022-09-28T05:55:59.843Z,96484.16
2022-09-28T05:58:28.844Z,96485.60
2022-09-28T06:00:57.598Z,96488.79
2022-09-28T06:03:26.006Z,96488.33
2022-09-28T06:05:55.197Z,96495.49
2022-09-28T06:08:23.163Z,96493.31
2022-09-28T06:11:02.311Z,96495.83
2022-09-28T06:13:30.482Z,96487.55
2022-09-28T06:15:58.452Z,96485.84
2022-09-28T06:18:27.492Z,96490.26
2022-09-28T06:21:14.562Z,96488.67
2022-09-28T06:23:48.959Z,96492.94
2022-09-28T06:26:18.849Z,96494.20
2022-09-28T06:28:47.275Z,96495.43
2022-09-28T06:31:16.073Z,96498.40
2022-09-28T06:33:50.834Z,96499.35
2022-09-28T06:36:20.972Z,96496.09
2022-09-28T06:38:50.421Z,96495.44
2022-09-28T06:41:18.591Z,96494.80
2022-09-28T06:43:48.815Z,96493.42
2022-09-28T06:46:38.322Z,96497.13
2022-09-28T06:49:27.251Z,96494.27
2022-09-28T06:52:13.836Z,96500.56
2022-09-28T06:55:00.493Z,96508.52
2022-09-28T06:57:40.415Z,96512.73
2022-09-28T07:00:09.214Z,96511.77
2022-09-28T07:02:37.667Z,96509.70
2022-09-28T07:05:36.884Z,96513.46
2022-09-28T07:08:26.057Z,96514.54
2022-09-28T07:11:07.433Z,96518.27
2022-09-28T07:14:22.401Z,96520.48
2022-09-28T07:17:13.084Z,96529.57
2022-09-28T07:19:43.028Z,96533.60
2022-09-28T07:22:18.916Z,96534.19
2022-09-28T07:24:48.902Z,96536.91
2022-09-28T07:27:39.802Z,96542.42
2022-09-28T07:30:40.367Z,96547.88
2022-09-28T07:33:19.464Z,96551.56
2022-09-28T07:35:55.738Z,96551.96
2022-09-28T07:38:29.638Z,96551.58
2022-09-28T07:41:14.319Z,96549.61
2022-09-28T07:43:46.575Z,96543.27
2022-09-28T07:46:15.120Z,96538.94
2022-09-28T07:48:49.829Z,96538.11
2022-09-28T07:51:38.133Z,96541.09
2022-09-28T07:54:39.805Z,96546.88
2022-09-28T07:57:29.461Z,96549.45
2022-09-28T08:00:17.812Z,96553.08
2022-09-28T08:02:48.502Z,96558.19
2022-09-28T08:05:22.351Z,96562.25
2022-09-28T08:07:50.422Z,96562.35
2022-09-28T08:10:20.184Z,96563.50
2022-09-28T08:13:08.708Z,96569.35
2022-09-28T08:15:39.918Z,96570.16
2022-09-28T08:18:31.760Z,96572.00
2022-09-28T08:21:18.453Z,96571.91
2022-09-28T08:23:46.849Z,96570.46
2022-09-28T08:26:16.765Z,96568.21
2022-09-28T08:28:47.976Z,96568.84
2022-09-28T08:31:36.451Z,96572.71
2022-09-28T08:34:22.859Z,96571.67
2022-09-28T08:37:07.217Z,96564.66
2022-09-28T08:39:55.458Z,96568.94
2022-09-28T08:42:42.927Z,96570.26
2022-09-28T08:45:35.191Z,96574.52
2022-09-28T08:49:06.604Z,96569.70
2022-09-28T08:52:03.940Z,96570.15
2022-09-28T08:55:24.903Z,96567.77
2022-09-28T08:57:54.940Z,96570.56
2022-09-28T09:00:51.212Z,96569.81
2022-09-28T09:03:34.326Z,96571.38
2022-09-28T09:07:15.002Z,96570.44
2022-09-28T09:10:11.645Z,96570.58
2022-09-28T09:13:03.585Z,96566.67
2022-09-28T09:15:54.191Z,96559.05
2022-09-28T09:18:42.317Z,96550.31
2022-09-28T09:21:42.339Z,96551.98
2022-09-28T09:24:35.596Z,96557.13
2022-09-28T09:27:13.298Z,96565.25
2022-09-28T09:30:19.303Z,96574.41
2022-09-28T09:32:57.059Z,96576.84
2022-09-28T09:35:33.932Z,96575.00
2022-09-28T09:39:20.649Z,96572.98
2022-09-28T09:42:22.001Z,96566.52
2022-09-28T09:45:54.981Z,96575.08
2022-09-28T09:48:47.556Z,96583.64
2022-09-28T09:51:56.175Z,96582.85
2022-09-28T09:54:36.219Z,96588.95
2022-09-28T09:57:13.309Z,96586.02
2022-09-28T09:59:58.572Z,96583.99
2022-09-28T10:02:45.267Z,96584.20
2022-09-28T10:05:37.315Z,96584.23
2022-09-28T10:08:08.362Z,96587.23
2022-09-28T10:10:49.667Z,96587.54
2022-09-28T10:13:19.494Z,96584.89
2022-09-28T10:15:48.484Z,96586.14
2022-09-28T10:18:21.956Z,96589.98
2022-09-28T10:21:24.115Z,96593.13
2022-09-28T10:24:32.541Z,96596.45
2022-09-28T10:27:13.819Z,96601.91
2022-09-28T10:29:54.073Z,96603.27
2022-09-28T10:32:41.194Z,96605.59
2022-09-28T10:35:31.893Z,96604.66
2022-09-28T10:38:19.729Z,96601.58
2022-09-28T10:40:56.016Z,96600.23
2022-09-28T10:44:08.950Z,96597.89
2022-09-28T10:47:02.357Z,96597.52
2022-09-28T10:49:48.993Z,96598.00
2022-09-28T10:52:36.720Z,96600.45
2022-09-28T10:55:26.915Z,96597.41
2022-09-28T10:57:55.401Z,96595.23
2022-09-28T11:00:38.927Z,96595.29
2022-09-28T11:03:25.284Z,96591.55
2022-09-28T11:05:55.607Z,96589.13
2022-09-28T11:08:32.594Z,96582.94
2022-09-28T11:11:11.563Z,96578.48
2022-09-28T11:13:47.311Z,96576.80
2022-09-28T11:16:28.871Z,96574.16
2022-09-28T11:18:59.193Z,96566.55
2022-09-28T11:21:40.967Z,96559.31
2022-09-28T11:24:18.886Z,96561.58
2022-09-28T11:26:53.035Z,96563.10
2022-09-28T11:29:26.635Z,96568.11
2022-09-28T11:32:15.680Z,96573.18
2022-09-28T11:35:19.817Z,96569.66
2022-09-28T11:38:03.457Z,96570.55
2022-09-28T11:41:09.214Z,96569.70
2022-09-28T11:44:03.555Z,96569.14
2022-09-28T11:46:38.126Z,96566.52
2022-09-28T11:49:27.495Z,96561.24
2022-09-28T11:52:01.608Z,96558.58
2022-09-28T11:54:38.794Z,96557.33
2022-09-28T11:57:22.326Z,96562.45
2022-09-28T11:59:59.205Z,96564.27
2022-09-28T12:02:40.021Z,96563.59
2022-09-28T12:05:21.370Z,96567.46
2022-09-28T12:07:56.871Z,96568.23
2022-09-28T12:11:00.386Z,96570.09
2022-09-28T12:13:51.825Z,96565.16
2022-09-28T12:19:48.091Z,96567.70
2022-09-28T12:22:25.532Z,96565.48
2022-09-28T12:24:57.941Z,96564.73
2022-09-28T12:27:45.371Z,96569.23
2022-09-28T12:30:20.813Z,96566.98
2022-09-28T12:33:01.076Z,96564.55
2022-09-28T12:35:29.115Z,96564.73
2022-09-28T12:38:20.741Z,96573.08
2022-09-28T12:41:16.902Z,96572.84
2022-09-28T12:44:02.275Z,96570.17
2022-09-28T12:46:49.161Z,96580.34
2022-09-28T12:50:36.675Z,96583.36
2022-09-28T12:55:25.034Z,96574.33
2022-09-28T12:57:59.638Z,96575.54
2022-09-28T13:00:54.098Z,96574.76
2022-09-28T13:03:49.721Z,96574.79
2022-09-28T13:06:26.492Z,96578.23
2022-09-28T13:09:20.292Z,96580.93
2022-09-28T13:11:54.998Z,96580.02
2022-09-28T13:15:03.308Z,96576.44
2022-09-28T13:17:42.811Z,96576.70
2022-09-28T13:20:38.710Z,96582.65
2022-09-28T13:23:23.860Z,96582.46
2022-09-28T13:26:05.130Z,96578.52
2022-09-28T13:28:35.859Z,96577.04
2022-09-28T13:31:05.754Z,96580.77
2022-09-28T13:33:37.024Z,96580.55
2022-09-28T13:36:25.788Z,96580.42
2022-09-28T13:38:55.696Z,96584.87
2022-09-28T13:41:35.698Z,96588.88
2022-09-28T13:44:20.385Z,96589.16
2022-09-28T13:47:10.294Z,96589.49
2022-09-28T13:50:09.068Z,96587.17
2022-09-28T13:53:09.178Z,96587.54
2022-09-28T13:56:02.064Z,96592.10
2022-09-28T13:58:32.793Z,96590.83
2022-09-28T14:01:11.166Z,96595.19
2022-09-28T14:04:19.336Z,96598.89
2022-09-28T14:07:09.504Z,96599.98
2022-09-28T14:09:47.000Z,96604.84
2022-09-28T14:12:43.545Z,96602.88
2022-09-28T14:15:30.001Z,96602.90
2022-09-28T14:18:16.142Z,96602.63
2022-09-28T14:20:58.346Z,96607.68
2022-09-28T14:24:00.229Z,96611.73
2022-09-28T14:26:41.948Z,96610.84
2022-09-28T14:29:28.557Z,96607.38
2022-09-28T14:31:59.139Z,96605.98
2022-09-28T14:34:58.529Z,96607.32
2022-09-28T14:37:56.316Z,96610.46
2022-09-28T14:40:49.524Z,96616.65
2022-09-28T14:43:45.718Z,96615.27
2022-09-28T14:46:20.076Z,96611.77
2022-09-28T14:48:52.907Z,96611.05
2022-09-28T14:51:27.052Z,96606.44
2022-09-28T14:54:01.381Z,96607.81
2022-09-28T14:56:43.844Z,96607.83
2022-09-28T14:59:20.570Z,96608.52
2022-09-28T15:02:01.422Z,96607.84
2022-09-28T15:04:30.941Z,96607.11
2022-09-28T15:06:59.485Z,96600.25
2022-09-28T15:09:36.416Z,96595.27
2022-09-28T15:12:16.552Z,96594.96
2022-09-28T15:14:49.813Z,96597.34
2022-09-28T15:17:22.698Z,96600.89
2022-09-28T15:19:51.384Z,96602.60
2022-09-28T15:22:21.176Z,96601.56
2022-09-28T15:25:02.253Z,96601.15
2022-09-28T15:27:38.020Z,96602.31
2022-09-28T15:30:32.207Z,96606.77
2022-09-28T15:33:22.701Z,96614.98
2022-09-28T15:36:02.856Z,96625.23
2022-09-28T15:38:34.929Z,96629.03
2022-09-28T15:41:05.813Z,96624.89
2022-09-28T15:43:34.857Z,96626.02
2022-09-28T15:46:21.635Z,96623.42
2022-09-28T15:49:00.386Z,96628.39
2022-09-28T15:51:29.995Z,96627.88
2022-09-28T15:54:01.239Z,96637.29
2022-09-28T15:56:30.540Z,96640.58
2022-09-28T15:59:30.872Z,96642.86
2022-09-28T16:02:08.263Z,96638.51
2022-09-28T16:04:59.034Z,96641.30
2022-09-28T16:07:35.840Z,96647.70
2022-09-28T16:10:11.609Z,96649.66
2022-09-28T16:12:55.126Z,96655.27
2022-09-28T16:15:28.685Z,96655.45
2022-09-28T16:18:02.765Z,96653.20
2022-09-28T16:20:41.567Z,96654.85
2022-09-28T16:23:09.840Z,96653.58
2022-09-28T16:25:39.242Z,96653.91
2022-09-28T16:28:07.417Z,96656.98
2022-09-28T16:30:35.597Z,96658.31
2022-09-28T16:33:06.867Z,96663.27
2022-09-28T16:35:40.648Z,96667.33
2022-09-28T16:38:14.436Z,96662.81
2022-09-28T16:40:52.793Z,96661.48
2022-09-28T16:43:27.744Z,96664.84
2022-09-28T16:46:02.291Z,96666.01
2022-09-28T16:48:32.341Z,96673.41
2022-09-28T16:51:00.550Z,96678.20
2022-09-28T16:53:47.425Z,96681.36
2022-09-28T16:56:16.112Z,96686.06
2022-09-28T16:58:48.181Z,96682.81
2022-09-28T17:01:16.367Z,96684.30
2022-09-28T17:03:47.094Z,96689.81
2022-09-28T17:06:16.892Z,96690.20
2022-09-28T17:08:45.385Z,96683.69
2022-09-28T17:11:22.567Z,96683.13
2022-09-28T17:13:52.479Z,96683.03
2022-09-28T17:16:37.026Z,96684.20
2022-09-28T17:19:19.792Z,96686.31
2022-09-28T17:21:49.055Z,96687.48
2022-09-28T17:24:18.073Z,96687.02
2022-09-28T17:26:47.864Z,96690.00
2022-09-28T17:29:16.235Z,96692.80
2022-09-28T17:31:45.356Z,96696.08
2022-09-28T17:34:16.262Z,96695.02
2022-09-28T17:36:45.371Z,96695.49
2022-09-28T17:39:19.206Z,96700.31
2022-09-28T17:41:47.759Z,96702.35
2022-09-28T17:44:16.501Z,96705.53
2022-09-28T17:46:48.844Z,96706.83
2022-09-28T17:49:17.515Z,96705.30
2022-09-28T17:51:45.831Z,96705.68
2022-09-28T17:54:16.999Z,96702.03
2022-09-28T17:56:46.434Z,96702.95
2022-09-28T17:59:17.636Z,96704.02
2022-09-28T18:01:45.857Z,96705.67
2022-09-28T18:04:39.640Z,96697.92
2022-09-28T18:07:04.527Z,96697.73
2022-09-28T18:09:32.495Z,96700.33
2022-09-28T18:12:04.350Z,96703.38
2022-09-28T18:14:32.935Z,96702.80
2022-09-28T18:17:01.005Z,96706.02
2022-09-28T18:19:32.190Z,96707.96
2022-09-28T18:22:01.724Z,96709.34
2022-09-28T18:24:32.684Z,96702.09
2022-09-28T18:27:00.712Z,96695.13
2022-09-28T18:29:33.147Z,96696.41
2022-09-28T18:32:02.755Z,96697.32
2022-09-28T18:34:31.235Z,96698.26
2022-09-28T18:36:59.309Z,96700.70
2022-09-28T18:39:27.373Z,96700.84
2022-09-28T18:41:55.454Z,96701.13
2022-09-28T18:44:24.040Z,96705.67
2022-09-28T18:46:52.100Z,96705.00
2022-09-28T18:49:21.618Z,96709.70
2022-09-28T18:51:49.850Z,96708.43
2022-09-28T18:54:18.165Z,96711.80
2022-09-28T18:56:46.131Z,96713.78
2022-09-28T18:59:14.884Z,96707.16
2022-09-28T19:01:43.725Z,96707.40
2022-09-28T19:04:12.092Z,96708.29
2022-09-28T19:06:41.846Z,96714.00
2022-09-28T19:09:10.894Z,96715.60
2022-09-28T19:11:39.172Z,96715.95
2022-09-28T19:14:10.968Z,96714.08
2022-09-28T19:16:39.107Z,96709.86
2022-09-28T19:19:07.377Z,96715.48
2022-09-28T19:21:35.563Z,96715.45
2022-09-28T19:24:04.458Z,96715.89
2022-09-28T19:26:33.300Z,96717.15
2022-09-28T19:29:03.146Z,96718.27
2022-09-28T19:31:32.861Z,96719.48
2022-09-28T19:34:01.037Z,96721.15
2022-09-28T19:36:29.512Z,96724.50
2022-09-28T19:39:03.354Z,96724.40
2022-09-28T19:41:43.518Z,96727.38
2022-09-28T19:44:26.299Z,96729.20
2022-09-28T19:47:01.263Z,96734.85
2022-09-28T19:49:33.146Z,96734.61
2022-09-28T19:52:13.301Z,96734.12
2022-09-28T19:54:55.958Z,96732.32
2022-09-28T19:57:26.122Z,96733.66
2022-09-28T19:59:59.230Z,96732.27
2022-09-28T20:02:29.603Z,96726.16
2022-09-28T20:04:57.763Z,96725.80
2022-09-28T20:07:25.835Z,96729.67
2022-09-28T20:09:53.810Z,96735.45
2022-09-28T20:12:22.505Z,96738.64
2022-09-28T20:14:50.565Z,96738.67
2022-09-28T20:17:19.377Z,96737.92
2022-09-28T20:19:48.139Z,96743.59
2022-09-28T20:22:17.140Z,96743.02
2022-09-28T20:24:45.211Z,96741.38
2022-09-28T20:27:13.105Z,96746.20
2022-09-28T20:29:43.151Z,96752.37
2022-09-28T20:32:11.780Z,96748.21
2022-09-28T20:34:39.730Z,96739.27
2022-09-28T20:37:07.823Z,96739.64
2022-09-28T20:39:35.896Z,96736.91
2022-09-28T20:42:03.963Z,96738.84
2022-09-28T20:44:32.038Z,96743.23
2022-09-28T20:47:01.199Z,96742.86
2022-09-28T20:49:29.206Z,96739.17
2022-09-28T20:51:57.170Z,96739.52
2022-09-28T20:54:25.754Z,96743.30
2022-09-28T20:56:53.932Z,96748.34
2022-09-28T20:59:25.906Z,96748.02
2022-09-28T21:01:53.995Z,96742.48
2022-09-28T21:04:21.914Z,96739.80
2022-09-28T21:06:49.906Z,96743.57
2022-09-28T21:09:18.081Z,96748.33
2022-09-28T21:11:46.563Z,96748.55
2022-09-28T21:14:14.527Z,96747.66
2022-09-28T21:16:42.506Z,96752.71
2022-09-28T21:19:10.463Z,96752.64
2022-09-28T21:21:38.542Z,96754.14
2022-09-28T21:24:07.145Z,96754.65
2022-09-28T21:26:35.814Z,96754.66
2022-09-28T21:29:07.156Z,96754.91
2022-09-28T21:31:47.851Z,96752.98
2022-09-28T21:34:20.680Z,96751.97
2022-09-28T21:36:51.356Z,96758.87
2022-09-28T21:39:20.441Z,96761.52
2022-09-28T21:41:48.517Z,96758.75
2022-09-28T21:44:16.674Z,96764.59
2022-09-28T21:46:44.792Z,96762.88
2022-09-28T21:49:14.468Z,96763.23
2022-09-28T21:51:42.536Z,96766.17
2022-09-28T21:54:12.111Z,96770.05
2022-09-28T21:56:40.220Z,96770.39
2022-09-28T21:59:08.292Z,96770.73
2022-09-28T22:01:36.298Z,96769.36
2022-09-28T22:04:04.329Z,96768.66
2022-09-28T22:06:32.302Z,96766.74
2022-09-28T22:09:00.351Z,96762.79
2022-09-28T22:11:29.161Z,96764.35
2022-09-28T22:13:59.806Z,96769.45
2022-09-28T22:16:31.143Z,96772.38
2022-09-28T22:18:59.993Z,96770.80
2022-09-28T22:21:32.037Z,96769.79
2022-09-28T22:24:02.830Z,96769.21
2022-09-28T22:26:33.105Z,96767.92
2022-09-28T22:29:07.786Z,96761.95
2022-09-28T22:31:38.753Z,96761.11
2022-09-28T22:34:09.018Z,96759.80
2022-09-28T22:36:37.222Z,96753.80
2022-09-28T22:39:05.214Z,96757.21
2022-09-28T22:41:33.673Z,96756.14
2022-09-28T22:44:01.944Z,96758.59
2022-09-28T22:46:32.276Z,96760.02
2022-09-28T22:49:00.860Z,96764.10
2022-09-28T22:51:30.157Z,96771.30
2022-09-28T22:53:58.540Z,96776.85
2022-09-28T22:56:27.020Z,96779.45
2022-09-28T22:58:55.501Z,96775.05
2022-09-28T23:01:25.872Z,96777.60
2022-09-28T23:03:55.060Z,96775.81
2022-09-28T23:06:26.779Z,96776.41
2022-09-28T23:08:55.025Z,96775.48
2022-09-28T23:11:23.132Z,96779.00
2022-09-28T23:13:52.744Z,96778.05
2022-09-28T23:16:23.558Z,96781.91
2022-09-28T23:18:53.280Z,96779.13
2022-09-28T23:21:24.205Z,96778.09
2022-09-28T23:24:01.743Z,96776.85
2022-09-28T23:26:32.553Z,96772.05
2022-09-28T23:29:00.625Z,96769.15
2022-09-28T23:31:31.551Z,96771.27
2022-09-28T23:34:05.983Z,96768.95
2022-09-28T23:36:34.041Z,96766.52
2022-09-28T23:39:03.385Z,96757.19
2022-09-28T23:41:31.320Z,96752.42
2022-09-28T23:43:59.160Z,96751.81
2022-09-28T23:46:27.190Z,96744.80
2022-09-28T23:48:55.234Z,96749.20
2022-09-28T23:51:23.200Z,96746.70
2022-09-28T23:53:51.278Z,96745.74
2022-09-28T23:56:19.344Z,96743.52
2022-09-28T23:58:47.184Z,96737.95
